createdAt,value
2018-02-20T00:07:36.193Z,1010.54
2018-02-20T00:17:36.154Z,1010.54
2018-02-20T00:27:36.220Z,1010.52
2018-02-20T00:37:36.203Z,1010.47
2018-02-20T00:47:36.264Z,1010.38
2018-02-20T00:57:36.210Z,1010.31
2018-02-20T01:07:36.281Z,1010.22
2018-02-20T01:17:36.225Z,1010.17
2018-02-20T01:27:36.328Z,1010.18
2018-02-20T01:37:36.264Z,1010.2
2018-02-20T01:47:36.217Z,1010.38
2018-02-20T01:57:36.314Z,1010.38
2018-02-20T02:07:36.270Z,1010.37
2018-02-20T02:17:36.313Z,1010.41
2018-02-20T02:27:36.274Z,1010.3
2018-02-20T02:37:36.338Z,1010.35
2018-02-20T02:47:36.306Z,1010.29
2018-02-20T02:57:36.361Z,1010.27
2018-02-20T03:07:36.328Z,1010.29
2018-02-20T03:17:36.281Z,1010.31
2018-02-20T03:27:36.357Z,1010.28
2018-02-20T03:37:36.310Z,1010.43
2018-02-20T03:47:36.376Z,1010.3
2018-02-20T03:57:36.310Z,1010.23
2018-02-20T04:07:36.377Z,1010.44
2018-02-20T04:17:36.338Z,1010.66
2018-02-20T04:27:36.398Z,1010.52
2018-02-20T04:37:36.367Z,1010.57
2018-02-20T04:47:36.319Z,1010.69
2018-02-20T04:57:36.424Z,1010.62
2018-02-20T05:07:36.364Z,1010.63
2018-02-20T05:17:36.438Z,1010.7
2018-02-20T05:27:36.373Z,1010.62
2018-02-20T05:37:36.429Z,1010.69
2018-02-20T05:47:36.405Z,1010.7
2018-02-20T05:57:36.488Z,1010.84
2018-02-20T06:07:36.425Z,1010.99
2018-02-20T06:17:36.383Z,1011.06
2018-02-20T06:27:36.464Z,1011.03
2018-02-20T06:37:36.400Z,1011.15
2018-02-20T06:47:36.460Z,1011.14
2018-02-20T06:57:36.456Z,1011.05
2018-02-20T07:07:36.501Z,1011.13
2018-02-20T07:17:36.479Z,1011.1
2018-02-20T07:27:36.513Z,1011.11
2018-02-20T07:37:36.478Z,1011.1
2018-02-20T07:47:36.568Z,1011.09
2018-02-20T07:57:36.507Z,1011.21
2018-02-20T08:07:36.460Z,1011.18
2018-02-20T08:17:36.548Z,1011.21
2018-02-20T08:27:36.490Z,1011.34
2018-02-20T08:37:36.561Z,1011.43
2018-02-20T08:47:36.507Z,1011.6
2018-02-20T08:57:36.572Z,1011.44
2018-02-20T09:07:36.523Z,1011.46
2018-02-20T09:17:36.607Z,1011.38
2018-02-20T09:27:36.587Z,1011.54
2018-02-20T09:37:36.543Z,1011.45
2018-02-20T09:47:36.605Z,1011.37
2018-02-20T09:57:36.551Z,1011.41
2018-02-20T10:07:36.757Z,1011.31
2018-02-20T10:17:36.554Z,1011.38
2018-02-20T10:27:36.627Z,1011.32
2018-02-20T10:37:36.595Z,1011.41
2018-02-20T10:47:36.646Z,1011.4
2018-02-20T10:57:36.624Z,1011.49
2018-02-20T11:07:36.672Z,1011.54
2018-02-20T11:17:36.642Z,1011.58
2018-02-20T11:27:36.703Z,1011.63
2018-02-20T11:37:36.721Z,1011.65
2018-02-20T11:47:36.741Z,1011.64
2018-02-20T11:57:36.793Z,1011.72
2018-02-20T12:07:36.641Z,1011.59
2018-02-20T12:17:36.715Z,1011.52
2018-02-20T12:27:36.718Z,1011.44
2018-02-20T12:37:36.734Z,1011.36
2018-02-20T12:47:36.736Z,1011.28
2018-02-20T12:57:36.761Z,1011.37
2018-02-20T13:07:36.720Z,1011.45
2018-02-20T13:17:36.777Z,1011.45
2018-02-20T13:27:36.757Z,1011.42
2018-02-20T13:37:37.149Z,1011.41
2018-02-20T13:47:36.768Z,1011.35
2018-02-20T13:57:36.842Z,1011.33
2018-02-20T14:07:36.826Z,1011.3
2018-02-20T14:17:36.777Z,1011.26
2018-02-20T14:27:36.815Z,1011.26
2018-02-20T14:37:36.768Z,1011.29
2018-02-20T14:47:36.834Z,1011.23
2018-02-20T14:57:36.805Z,1011.33
2018-02-20T15:07:36.855Z,1011.39
2018-02-20T15:17:36.826Z,1011.43
2018-02-20T15:27:36.905Z,1011.5
2018-02-20T15:37:36.849Z,1011.57
2018-02-20T15:47:36.914Z,1011.73
2018-02-20T15:57:39.464Z,1011.79
2018-02-20T16:07:36.959Z,1011.94
2018-02-20T16:17:36.902Z,1011.97
2018-02-20T16:27:36.857Z,1012.09
2018-02-20T16:37:36.933Z,1012.29
2018-02-20T16:47:36.888Z,1012.27
2018-02-20T16:57:36.948Z,1012.49
2018-02-20T17:07:36.917Z,1012.52
2018-02-20T17:17:36.980Z,1012.74
2018-02-20T17:27:36.924Z,1012.85
2018-02-20T17:37:37.034Z,1012.94
2018-02-20T17:47:36.939Z,1013.05
2018-02-20T17:57:37.033Z,1013.17
2018-02-20T18:07:37.012Z,1013.18
2018-02-20T18:17:36.938Z,1013.31
2018-02-20T18:27:49.887Z,1013.4
2018-02-20T18:37:44.794Z,1013.45
2018-02-20T18:47:50.586Z,1013.54
2018-02-20T18:57:49.818Z,1013.64
2018-02-20T19:07:49.669Z,1013.66
2018-02-20T19:17:48.996Z,1013.78
2018-02-20T19:27:47.600Z,1013.81
2018-02-20T19:37:48.575Z,1013.79
2018-02-20T19:47:48.127Z,1013.99
2018-02-20T19:57:49.352Z,1014.18
2018-02-20T20:07:49.448Z,1014.21
2018-02-20T20:17:49.029Z,1014.34
2018-02-20T20:27:48.565Z,1014.3
2018-02-20T20:37:37.119Z,1014.47
2018-02-20T20:47:37.063Z,1014.55
2018-02-20T20:57:37.143Z,1014.76
2018-02-20T21:07:37.064Z,1014.9
2018-02-20T21:17:37.196Z,1014.97
2018-02-20T21:27:37.122Z,1015
2018-02-20T21:37:37.182Z,1015.11
2018-02-20T21:47:37.117Z,1015.16
2018-02-20T21:57:37.077Z,1015.18
2018-02-20T22:07:37.150Z,1015.26
2018-02-20T22:17:37.121Z,1015.34
2018-02-20T22:27:37.165Z,1015.44
2018-02-20T22:37:37.119Z,1015.67
2018-02-20T22:47:37.201Z,1015.83
2018-02-20T22:57:37.189Z,1015.73
2018-02-20T23:07:37.227Z,1015.82
2018-02-20T23:17:37.173Z,1015.98
2018-02-20T23:27:37.268Z,1015.99
2018-02-20T23:37:37.214Z,1016.08
2018-02-20T23:47:37.164Z,1016.22
2018-02-20T23:57:37.247Z,1016.62
